Time;durP1;ratioP1;P1;durP2;ratioP2;P2;SDS_P1;SDS_P2;PMS_P1;PMS_P2;Temp;Humidity;BMP_temperature;BMP_pressure;BME280_temperature;BME280_humidity;BME280_pressure;Samples;Min_cycle;Max_cycle;Signal;HPM_P1;HPM_P2
2023/05/02 00:00:41;;;;;;;22.73;18.10;;;11.40;99.90;;;;;;4950733;28;20946;-61
2023/05/02 00:03:10;;;;;;;21.73;17.73;;;11.50;99.90;;;;;;4938656;28;20757;-61
2023/05/02 00:05:39;;;;;;;24.13;18.63;;;11.50;99.90;;;;;;4940563;28;20490;-60
2023/05/02 00:08:07;;;;;;;21.53;18.53;;;11.50;99.90;;;;;;4933818;28;20906;-61
2023/05/02 00:10:36;;;;;;;21.83;19.50;;;11.50;99.90;;;;;;4947263;28;20484;-60
2023/05/02 00:13:04;;;;;;;22.57;18.27;;;11.40;99.90;;;;;;4947751;28;20473;-61
2023/05/02 00:15:32;;;;;;;20.90;18.43;;;11.40;99.90;;;;;;4945268;28;20497;-61
2023/05/02 00:18:00;;;;;;;25.07;20.10;;;11.40;99.90;;;;;;4949050;28;20483;-61
2023/05/02 00:20:28;;;;;;;22.77;18.33;;;11.40;99.90;;;;;;4950302;28;20556;-61
2023/05/02 00:22:56;;;;;;;24.00;19.70;;;11.40;99.90;;;;;;4957443;28;21729;-61
2023/05/02 00:25:24;;;;;;;22.23;18.70;;;11.40;99.90;;;;;;4957508;28;20863;-61
2023/05/02 00:27:54;;;;;;;23.30;19.30;;;11.50;99.90;;;;;;4967421;28;20943;-61
2023/05/02 00:30:22;;;;;;;22.03;18.80;;;11.50;99.90;;;;;;4957081;28;20469;-61
2023/05/02 00:32:52;;;;;;;23.93;20.53;;;11.50;99.90;;;;;;4952145;28;20484;-61
2023/05/02 00:35:21;;;;;;;25.17;21.20;;;11.60;99.90;;;;;;4948192;28;21032;-62
2023/05/02 00:37:49;;;;;;;25.00;20.60;;;11.50;99.90;;;;;;4938119;28;20981;-62
2023/05/02 00:40:17;;;;;;;27.60;22.67;;;11.40;99.90;;;;;;4944783;28;20478;-61
2023/05/02 00:42:45;;;;;;;26.17;21.43;;;11.40;99.90;;;;;;4952445;28;20473;-62
2023/05/02 00:45:14;;;;;;;25.07;21.70;;;11.50;99.90;;;;;;4950783;28;20494;-61
2023/05/02 00:47:42;;;;;;;25.47;20.00;;;11.40;99.90;;;;;;4952758;28;20479;-61
2023/05/02 00:50:10;;;;;;;25.30;21.63;;;11.40;99.90;;;;;;4948841;28;20503;-61
2023/05/02 00:52:39;;;;;;;26.87;23.27;;;11.40;99.90;;;;;;4944228;28;20582;-61
2023/05/02 00:55:08;;;;;;;26.77;21.43;;;11.40;99.90;;;;;;4952596;28;20499;-61
2023/05/02 00:57:39;;;;;;;28.67;22.27;;;11.30;99.90;;;;;;4954180;28;20484;-62
2023/05/02 01:00:09;;;;;;;28.50;22.70;;;11.30;99.90;;;;;;4954912;28;20473;-61
2023/05/02 01:02:48;;;;;;;24.63;20.40;;;11.30;99.90;;;;;;4952274;28;20469;-61
2023/05/02 01:05:20;;;;;;;27.50;20.67;;;11.30;99.90;;;;;;4950314;28;20542;-61
2023/05/02 01:08:03;;;;;;;27.07;22.40;;;11.30;99.90;;;;;;4952016;28;20612;-62
2023/05/02 01:10:48;;;;;;;27.27;22.03;;;11.30;99.90;;;;;;4937708;28;21069;-61
2023/05/02 01:13:21;;;;;;;23.73;20.03;;;11.30;99.90;;;;;;4932613;28;20944;-62
2023/05/02 01:15:51;;;;;;;23.70;19.00;;;11.30;99.90;;;;;;4942694;28;20497;-61
2023/05/02 01:18:24;;;;;;;23.80;18.80;;;11.20;99.90;;;;;;4963860;28;20508;-61
2023/05/02 01:20:58;;;;;;;21.90;17.90;;;11.30;99.90;;;;;;4966339;28;20470;-61
2023/05/02 01:23:35;;;;;;;22.17;17.73;;;11.40;99.90;;;;;;4968713;28;20480;-60
2023/05/02 01:26:14;;;;;;;20.50;16.43;;;11.30;99.90;;;;;;4959951;28;20492;-61
2023/05/02 01:28:57;;;;;;;23.73;18.43;;;11.20;99.90;;;;;;4956553;28;21175;-60
2023/05/02 01:31:30;;;;;;;22.97;15.93;;;11.10;99.90;;;;;;4961233;28;21005;-61
2023/05/02 01:34:00;;;;;;;20.20;15.87;;;11.10;99.90;;;;;;4950475;28;20560;-61
2023/05/02 01:36:32;;;;;;;20.13;16.23;;;11.10;99.90;;;;;;4952903;28;20501;-60
2023/05/02 01:39:02;;;;;;;19.00;14.53;;;11.10;99.90;;;;;;4951599;28;20601;-61
2023/05/02 01:41:32;;;;;;;17.03;13.20;;;11.10;99.90;;;;;;4967472;28;20672;-62
2023/05/02 01:44:03;;;;;;;17.00;12.90;;;11.10;99.90;;;;;;4949329;28;23314;-60
2023/05/02 01:46:34;;;;;;;15.60;12.23;;;11.20;99.90;;;;;;4952972;28;20482;-61
2023/05/02 01:49:05;;;;;;;18.43;13.00;;;11.20;99.90;;;;;;4957096;28;20470;-61
2023/05/02 01:51:35;;;;;;;14.83;11.63;;;11.20;99.90;;;;;;4951926;28;20978;-61
2023/05/02 01:54:06;;;;;;;18.17;12.40;;;11.20;99.90;;;;;;4957433;28;20522;-61
2023/05/02 01:56:38;;;;;;;16.70;10.43;;;11.20;99.90;;;;;;4942243;28;21254;-60
2023/05/02 01:59:10;;;;;;;15.50;12.60;;;11.20;99.90;;;;;;4941956;28;20484;-60
2023/05/02 02:01:42;;;;;;;14.43;11.87;;;11.10;99.90;;;;;;4942112;28;21184;-60
2023/05/02 02:04:12;;;;;;;17.60;11.67;;;11.10;99.90;;;;;;4966514;28;20491;-61
2023/05/02 02:06:45;;;;;;;12.13;10.20;;;11.00;99.90;;;;;;4976413;28;20589;-61
2023/05/02 02:09:14;;;;;;;12.50;10.53;;;11.10;99.90;;;;;;4959523;28;20794;-61
2023/05/02 02:11:47;;;;;;;15.50;11.10;;;11.10;99.90;;;;;;4958359;28;20527;-61
2023/05/02 02:14:20;;;;;;;14.07;9.90;;;11.10;99.90;;;;;;4960284;28;20764;-61
2023/05/02 02:16:50;;;;;;;10.60;9.50;;;11.10;99.90;;;;;;4957922;28;20577;-61
2023/05/02 02:19:20;;;;;;;14.13;10.73;;;11.10;99.90;;;;;;4960929;28;20473;-60
2023/05/02 02:21:50;;;;;;;10.83;9.50;;;11.10;99.90;;;;;;4965761;28;20979;-61
2023/05/02 02:24:22;;;;;;;9.30;7.83;;;11.10;99.90;;;;;;4963394;28;20493;-62
2023/05/02 02:26:51;;;;;;;8.63;7.17;;;11.10;99.90;;;;;;4961888;28;20484;-62
2023/05/02 02:29:23;;;;;;;7.90;7.10;;;11.10;99.90;;;;;;4969274;28;20483;-61
2023/05/02 02:31:54;;;;;;;7.93;7.10;;;11.10;99.90;;;;;;4965579;28;20609;-60
2023/05/02 02:34:22;;;;;;;7.87;6.70;;;11.10;99.90;;;;;;4963899;28;20500;-62
2023/05/02 02:36:56;;;;;;;7.37;6.77;;;11.10;99.90;;;;;;4955023;28;20497;-61
2023/05/02 02:39:35;;;;;;;7.07;6.37;;;11.10;99.90;;;;;;4964625;28;20469;-61
2023/05/02 02:42:25;;;;;;;6.10;5.50;;;11.00;99.90;;;;;;4967041;28;20479;-61
2023/05/02 02:45:05;;;;;;;4.80;4.40;;;11.00;99.90;;;;;;4973216;28;20482;-61
2023/05/02 02:47:42;;;;;;;7.40;6.10;;;11.00;99.90;;;;;;4968403;28;20472;-61
2023/05/02 02:50:16;;;;;;;9.37;7.80;;;10.90;99.90;;;;;;4975716;28;20473;-61
2023/05/02 02:52:53;;;;;;;11.03;8.03;;;10.80;99.90;;;;;;4972468;28;20483;-61
2023/05/02 02:55:31;;;;;;;8.10;5.33;;;10.70;99.90;;;;;;4967486;28;20503;-61
2023/05/02 02:58:03;;;;;;;7.93;4.60;;;10.70;99.90;;;;;;4978053;28;20485;-61
2023/05/02 03:00:34;;;;;;;5.23;3.63;;;10.60;99.90;;;;;;4980040;28;20473;-61
2023/05/02 03:03:02;;;;;;;9.27;4.23;;;10.50;99.90;;;;;;4979928;28;20480;-61
2023/05/02 03:05:33;;;;;;;7.83;3.90;;;10.40;99.90;;;;;;4978007;28;20481;-61
2023/05/02 03:08:03;;;;;;;8.67;4.20;;;10.30;99.90;;;;;;4976649;28;21033;-61
2023/05/02 03:10:32;;;;;;;6.90;4.00;;;10.30;99.90;;;;;;4970697;28;20477;-60
2023/05/02 03:13:00;;;;;;;10.50;4.40;;;10.10;99.90;;;;;;4963721;28;20484;-60
2023/05/02 03:16:06;;;;;;;6.87;3.93;;;10.00;99.90;;;;;;4972708;28;20504;-60
2023/05/02 03:18:34;;;;;;;8.10;4.27;;;10.00;99.90;;;;;;4970075;28;20612;-62
2023/05/02 03:21:02;;;;;;;8.40;4.67;;;9.90;99.90;;;;;;4969399;28;20507;-61
2023/05/02 03:23:30;;;;;;;8.20;4.37;;;9.90;99.90;;;;;;4968867;28;20475;-61
2023/05/02 03:25:58;;;;;;;8.20;4.90;;;9.80;99.90;;;;;;4968048;28;20485;-61
2023/05/02 03:28:26;;;;;;;11.47;5.37;;;9.80;99.90;;;;;;4971640;28;20473;-60
2023/05/02 03:30:55;;;;;;;13.10;5.13;;;9.70;99.90;;;;;;4976525;28;21085;-61
2023/05/02 03:33:24;;;;;;;9.50;4.77;;;9.60;99.90;;;;;;4974664;28;20472;-60
2023/05/02 03:35:52;;;;;;;8.00;4.47;;;9.40;99.90;;;;;;4972712;28;21022;-61
2023/05/02 03:38:20;;;;;;;9.20;4.90;;;9.30;99.90;;;;;;4980718;28;20496;-60
2023/05/02 03:40:48;;;;;;;8.80;4.67;;;9.20;99.90;;;;;;4981859;28;20476;-61
2023/05/02 03:43:16;;;;;;;10.97;4.70;;;9.10;99.90;;;;;;4976592;28;20528;-60
2023/05/02 03:45:43;;;;;;;8.87;4.10;;;9.10;99.90;;;;;;4966835;28;21216;-61
2023/05/02 03:48:15;;;;;;;12.20;5.73;;;9.00;99.90;;;;;;4967924;28;20465;-61
2023/05/02 03:50:43;;;;;;;8.80;4.30;;;8.90;99.90;;;;;;4980632;28;20847;-60
2023/05/02 03:53:11;;;;;;;8.73;4.50;;;8.90;99.90;;;;;;4979592;28;20492;-61
2023/05/02 03:55:41;;;;;;;13.77;4.90;;;8.90;99.90;;;;;;4982778;28;20485;-59
2023/05/02 03:58:11;;;;;;;8.93;3.93;;;8.90;99.90;;;;;;4979524;28;20500;-60
2023/05/02 04:00:45;;;;;;;10.70;4.70;;;8.90;99.90;;;;;;4977814;28;20481;-61
2023/05/02 04:03:15;;;;;;;6.13;3.60;;;8.80;99.90;;;;;;4979532;28;20469;-60
2023/05/02 04:05:43;;;;;;;12.40;5.73;;;8.80;99.90;;;;;;4977309;28;20492;-60
2023/05/02 04:08:11;;;;;;;8.53;5.10;;;8.70;99.90;;;;;;4982964;28;20465;-60
2023/05/02 04:10:39;;;;;;;7.23;4.70;;;8.70;99.90;;;;;;4978789;28;20469;-61
2023/05/02 04:13:07;;;;;;;9.87;4.50;;;8.70;99.90;;;;;;4980047;28;20469;-60
2023/05/02 04:15:37;;;;;;;7.30;4.57;;;8.70;99.90;;;;;;4971116;28;21004;-60
2023/05/02 04:18:05;;;;;;;9.53;4.53;;;8.70;99.90;;;;;;4971971;28;20577;-60
2023/05/02 04:20:34;;;;;;;9.47;4.93;;;8.70;99.90;;;;;;4962727;28;20482;-60
2023/05/02 04:23:02;;;;;;;9.30;4.20;;;8.80;99.90;;;;;;4981221;28;20465;-60
2023/05/02 04:25:30;;;;;;;10.90;4.57;;;8.80;99.90;;;;;;4979386;28;21053;-60
2023/05/02 04:27:58;;;;;;;6.87;4.30;;;8.70;99.90;;;;;;4975018;28;20504;-60
2023/05/02 04:30:26;;;;;;;14.10;4.70;;;8.80;99.90;;;;;;4970046;28;21141;-60
2023/05/02 04:32:54;;;;;;;10.80;4.77;;;8.80;99.90;;;;;;4984108;28;20477;-60
2023/05/02 04:35:22;;;;;;;10.27;3.90;;;8.80;99.90;;;;;;4973737;28;20501;-60
2023/05/02 04:37:52;;;;;;;10.70;4.80;;;8.70;99.90;;;;;;4977169;28;20494;-59
2023/05/02 04:40:20;;;;;;;16.73;4.97;;;8.70;99.90;;;;;;5000458;28;20649;-59
2023/05/02 04:42:48;;;;;;;7.70;4.57;;;8.70;99.90;;;;;;5000515;28;20502;-62
2023/05/02 04:45:16;;;;;;;8.50;4.90;;;8.60;99.90;;;;;;4995345;28;20615;-59
2023/05/02 04:47:44;;;;;;;8.70;4.27;;;8.60;99.90;;;;;;4984357;28;20469;-60
2023/05/02 04:50:12;;;;;;;8.90;4.70;;;8.60;99.90;;;;;;4972136;28;21050;-60
2023/05/02 04:52:40;;;;;;;12.07;5.47;;;8.60;99.90;;;;;;4974113;28;20474;-60
2023/05/02 04:55:10;;;;;;;12.30;5.20;;;8.60;99.90;;;;;;4973453;28;20493;-60
2023/05/02 04:57:38;;;;;;;11.10;5.20;;;8.60;99.90;;;;;;4975827;28;23226;-60
2023/05/02 05:00:08;;;;;;;7.57;4.53;;;8.50;99.90;;;;;;4988542;28;20478;-61
2023/05/02 05:02:35;;;;;;;7.47;4.13;;;8.50;99.90;;;;;;4982639;28;20479;-60
2023/05/02 05:05:04;;;;;;;9.30;4.40;;;8.50;99.90;;;;;;4975722;28;21026;-60
2023/05/02 05:07:32;;;;;;;9.60;4.30;;;8.40;99.90;;;;;;4972815;28;20479;-60
2023/05/02 05:10:00;;;;;;;8.80;4.57;;;8.40;99.90;;;;;;4956643;28;20492;-59
2023/05/02 05:12:30;;;;;;;11.07;4.87;;;8.40;99.90;;;;;;4959475;28;20481;-60
2023/05/02 05:14:58;;;;;;;12.97;4.90;;;8.40;99.90;;;;;;4953086;28;20501;-60
2023/05/02 05:17:26;;;;;;;12.73;4.33;;;8.40;99.90;;;;;;4962253;28;20967;-60
2023/05/02 05:19:54;;;;;;;6.70;3.87;;;8.30;99.90;;;;;;4959659;28;20500;-60
2023/05/02 05:22:22;;;;;;;10.87;4.47;;;8.40;99.90;;;;;;4962911;28;20484;-61
2023/05/02 05:24:53;;;;;;;9.13;3.97;;;8.30;99.90;;;;;;4972246;28;20473;-60
2023/05/02 05:27:21;;;;;;;10.90;4.67;;;8.30;99.90;;;;;;4969060;28;20473;-60
2023/05/02 05:29:51;;;;;;;13.43;3.33;;;8.30;99.90;;;;;;4962956;28;20899;-61
2023/05/02 05:32:19;;;;;;;10.90;4.00;;;8.30;99.90;;;;;;4961533;28;20508;-60
2023/05/02 05:34:47;;;;;;;7.63;3.50;;;8.30;99.90;;;;;;4974739;28;20465;-61
2023/05/02 05:37:15;;;;;;;9.33;4.17;;;8.30;99.90;;;;;;4963067;28;20489;-61
2023/05/02 05:39:43;;;;;;;10.47;3.90;;;8.20;99.90;;;;;;4973207;28;20493;-61
2023/05/02 05:42:11;;;;;;;6.27;3.97;;;8.20;99.90;;;;;;4975876;28;20561;-61
2023/05/02 05:44:39;;;;;;;11.00;4.10;;;8.20;99.90;;;;;;4971315;28;20468;-59
2023/05/02 05:47:08;;;;;;;9.23;4.33;;;8.20;99.90;;;;;;4967453;28;20496;-61
2023/05/02 05:49:36;;;;;;;7.53;3.57;;;8.20;99.90;;;;;;4954299;28;20509;-61
2023/05/02 05:52:05;;;;;;;9.27;3.90;;;8.20;99.90;;;;;;4961229;28;20572;-58
2023/05/02 05:54:33;;;;;;;12.03;4.30;;;8.30;99.90;;;;;;4972871;28;20492;-60
2023/05/02 05:57:02;;;;;;;6.63;4.20;;;8.20;99.90;;;;;;4977167;28;20498;-60
2023/05/02 05:59:30;;;;;;;5.73;3.63;;;8.20;99.90;;;;;;4968378;28;20489;-61
2023/05/02 06:01:58;;;;;;;9.03;4.60;;;8.20;99.90;;;;;;4964052;28;20605;-61
2023/05/02 06:04:27;;;;;;;6.33;3.83;;;8.10;99.90;;;;;;4965431;28;21021;-61
2023/05/02 06:06:55;;;;;;;6.60;3.90;;;8.10;99.90;;;;;;4962629;28;20500;-59
2023/05/02 06:09:23;;;;;;;5.00;3.53;;;8.10;99.90;;;;;;4963261;28;20465;-59
2023/05/02 06:11:51;;;;;;;6.43;3.97;;;8.10;99.90;;;;;;4965100;28;20473;-64
2023/05/02 06:14:19;;;;;;;6.17;4.00;;;8.10;99.90;;;;;;4968195;28;20858;-59
2023/05/02 06:16:47;;;;;;;9.33;4.47;;;8.10;99.90;;;;;;4978990;28;20485;-59
2023/05/02 06:19:15;;;;;;;7.30;4.17;;;8.10;99.90;;;;;;4976771;28;20489;-59
2023/05/02 06:21:44;;;;;;;7.67;3.83;;;8.10;99.90;;;;;;4979610;28;20921;-59
2023/05/02 06:24:12;;;;;;;5.00;3.60;;;8.20;99.90;;;;;;4984027;28;20469;-59
2023/05/02 06:26:40;;;;;;;3.97;3.37;;;8.20;99.90;;;;;;4983538;28;20489;-59
2023/05/02 06:29:08;;;;;;;9.30;4.57;;;8.20;99.90;;;;;;4982277;28;20477;-59
2023/05/02 06:31:36;;;;;;;7.10;3.63;;;8.20;99.90;;;;;;4984295;28;20476;-60
2023/05/02 06:34:04;;;;;;;7.27;4.17;;;8.20;99.90;;;;;;4983639;28;20501;-61
2023/05/02 06:36:32;;;;;;;5.40;3.10;;;8.30;99.90;;;;;;4983000;28;20992;-62
2023/05/02 06:39:02;;;;;;;7.90;3.37;;;8.30;99.90;;;;;;4982435;28;20532;-60
2023/05/02 06:41:30;;;;;;;6.20;3.60;;;8.20;99.90;;;;;;4980851;28;20469;-59
2023/05/02 06:43:58;;;;;;;6.13;3.53;;;8.20;99.90;;;;;;4982634;28;20958;-60
2023/05/02 06:46:29;;;;;;;6.37;3.30;;;8.20;99.90;;;;;;4982916;28;20496;-61
2023/05/02 06:48:57;;;;;;;8.03;3.87;;;8.20;99.90;;;;;;4979790;28;20828;-61
2023/05/02 06:51:25;;;;;;;9.10;3.40;;;8.20;99.90;;;;;;4984111;28;20500;-60
2023/05/02 06:53:53;;;;;;;4.27;3.10;;;8.20;99.90;;;;;;4984281;28;20556;-61
2023/05/02 06:56:24;;;;;;;6.40;3.90;;;8.10;99.90;;;;;;4982540;28;20821;-61
2023/05/02 06:58:52;;;;;;;5.50;3.20;;;8.20;99.90;;;;;;4983519;28;20777;-61
2023/05/02 07:01:20;;;;;;;5.80;3.80;;;8.20;99.90;;;;;;4982505;28;20473;-61
2023/05/02 07:03:48;;;;;;;6.37;3.27;;;8.20;99.90;;;;;;4982048;28;20477;-61
2023/05/02 07:06:16;;;;;;;4.37;3.70;;;8.20;99.90;;;;;;4981827;28;20934;-61
2023/05/02 07:08:44;;;;;;;5.17;3.60;;;8.30;99.90;;;;;;4970593;28;20504;-61
2023/05/02 07:11:12;;;;;;;3.90;3.27;;;8.20;99.90;;;;;;4968390;28;20484;-61
2023/05/02 07:13:41;;;;;;;4.23;3.13;;;8.30;99.90;;;;;;4971523;28;20473;-61
2023/05/02 07:16:09;;;;;;;4.87;3.30;;;8.30;99.90;;;;;;4961329;28;20496;-61
2023/05/02 07:18:37;;;;;;;5.60;4.00;;;8.40;99.90;;;;;;4973155;28;20488;-61
2023/05/02 07:21:05;;;;;;;5.57;4.50;;;8.40;99.90;;;;;;4967515;28;20472;-60
2023/05/02 07:23:33;;;;;;;4.80;3.93;;;8.40;99.90;;;;;;4965025;28;20476;-59
2023/05/02 07:26:04;;;;;;;5.90;3.77;;;8.40;99.90;;;;;;4969291;28;21182;-58
2023/05/02 07:28:33;;;;;;;8.10;3.07;;;8.50;99.90;;;;;;4975268;28;20465;-61
2023/05/02 07:31:03;;;;;;;3.93;2.87;;;8.50;99.90;;;;;;4966918;28;20829;-60
2023/05/02 07:33:31;;;;;;;4.10;2.50;;;8.50;99.90;;;;;;4968092;28;20469;-61
2023/05/02 07:35:59;;;;;;;3.77;3.00;;;8.50;99.90;;;;;;4976328;28;21111;-61
2023/05/02 07:38:27;;;;;;;4.83;2.27;;;8.60;99.90;;;;;;4974110;28;20623;-61
2023/05/02 07:40:58;;;;;;;3.63;2.23;;;8.60;99.90;;;;;;4970504;28;20678;-61
2023/05/02 07:43:26;;;;;;;3.30;2.27;;;8.60;99.90;;;;;;4977227;28;20859;-61
2023/05/02 07:45:54;;;;;;;5.20;2.23;;;8.70;99.90;;;;;;4972495;28;21321;-61
2023/05/02 07:48:24;;;;;;;5.20;2.27;;;8.70;99.90;;;;;;4967354;28;20569;-60
2023/05/02 07:50:54;;;;;;;4.40;2.43;;;8.80;99.90;;;;;;4977652;28;20469;-61
2023/05/02 07:53:22;;;;;;;6.00;2.40;;;8.70;99.90;;;;;;4965541;28;20470;-60
2023/05/02 07:55:50;;;;;;;5.20;2.80;;;8.70;99.90;;;;;;4965680;28;20500;-61
2023/05/02 07:58:18;;;;;;;6.83;2.10;;;8.80;99.90;;;;;;4982520;28;20500;-60
2023/05/02 08:00:47;;;;;;;7.73;2.43;;;8.80;99.90;;;;;;4966302;28;20500;-60
2023/05/02 08:03:14;;;;;;;5.83;2.53;;;8.80;99.90;;;;;;4975582;28;20470;-61
2023/05/02 08:05:44;;;;;;;6.63;2.60;;;8.90;99.90;;;;;;4967045;28;20603;-60
2023/05/02 08:08:12;;;;;;;3.00;2.10;;;8.90;99.90;;;;;;4966892;28;20513;-60
2023/05/02 08:10:40;;;;;;;3.00;2.00;;;8.90;99.90;;;;;;4977488;28;20477;-61
2023/05/02 08:13:08;;;;;;;4.33;2.20;;;8.80;99.90;;;;;;4969647;28;20478;-61
2023/05/02 08:15:36;;;;;;;4.43;2.17;;;8.90;99.90;;;;;;4967540;28;21083;-61
2023/05/02 08:18:04;;;;;;;7.33;2.23;;;8.90;99.90;;;;;;4963719;28;20800;-61
2023/05/02 08:20:32;;;;;;;8.20;2.47;;;9.00;99.90;;;;;;4966220;28;20488;-61
2023/05/02 08:23:01;;;;;;;2.50;2.20;;;9.00;99.90;;;;;;4965018;28;20485;-62
2023/05/02 08:25:29;;;;;;;4.87;2.73;;;9.10;99.90;;;;;;4966199;28;20504;-60
2023/05/02 08:27:57;;;;;;;6.87;2.50;;;9.20;99.90;;;;;;4970998;28;20481;-63
2023/05/02 08:30:25;;;;;;;4.93;2.30;;;9.30;99.90;;;;;;4983708;28;20478;-61
2023/05/02 08:32:53;;;;;;;5.90;2.63;;;9.40;99.90;;;;;;4965182;28;20477;-61
2023/05/02 08:35:21;;;;;;;3.90;2.73;;;9.40;99.90;;;;;;4969912;28;22277;-60
2023/05/02 08:37:49;;;;;;;2.60;2.00;;;9.40;99.90;;;;;;4979714;28;20474;-60
2023/05/02 08:40:22;;;;;;;3.57;2.23;;;9.40;99.90;;;;;;4980308;28;20494;-60
2023/05/02 08:43:07;;;;;;;5.00;2.47;;;9.30;99.90;;;;;;4980185;28;20469;-60
2023/05/02 08:45:39;;;;;;;4.93;2.53;;;9.40;99.90;;;;;;4977530;28;20535;-60
2023/05/02 08:48:09;;;;;;;5.77;2.57;;;9.40;99.90;;;;;;4978221;28;20491;-59
2023/05/02 08:50:38;;;;;;;3.63;2.40;;;9.50;99.90;;;;;;4981527;28;20826;-60
2023/05/02 08:53:06;;;;;;;6.93;2.73;;;9.50;99.90;;;;;;4982418;28;20478;-60
2023/05/02 08:55:38;;;;;;;5.00;2.40;;;9.50;99.90;;;;;;4978999;28;20820;-60
2023/05/02 08:58:07;;;;;;;4.20;2.40;;;9.60;99.90;;;;;;4980586;28;20829;-60
2023/05/02 09:00:39;;;;;;;4.10;2.77;;;9.70;99.90;;;;;;4979294;28;20517;-61
2023/05/02 09:03:16;;;;;;;4.60;2.80;;;9.80;99.90;;;;;;4969601;28;20492;-60
2023/05/02 09:05:51;;;;;;;5.73;3.37;;;9.80;99.90;;;;;;4978510;28;20575;-60
2023/05/02 09:08:22;;;;;;;4.47;3.37;;;9.70;99.90;;;;;;4979440;28;20958;-61
2023/05/02 09:10:52;;;;;;;5.30;3.07;;;9.80;99.90;;;;;;4965627;28;20476;-60
2023/05/02 09:13:30;;;;;;;3.23;2.87;;;9.80;99.90;;;;;;4963280;28;20477;-61
2023/05/02 09:16:00;;;;;;;8.43;3.97;;;9.80;99.90;;;;;;4968702;28;20498;-62
2023/05/02 09:18:33;;;;;;;5.40;2.67;;;10.00;99.90;;;;;;4963494;28;20604;-62
2023/05/02 09:21:05;;;;;;;3.97;2.80;;;10.10;99.90;;;;;;4967599;28;20501;-64
2023/05/02 09:23:34;;;;;;;5.43;3.30;;;10.30;99.90;;;;;;4965636;28;20485;-61
2023/05/02 09:26:11;;;;;;;3.63;2.63;;;10.50;99.90;;;;;;4966082;28;20505;-61
2023/05/02 09:28:41;;;;;;;2.90;2.60;;;10.50;99.90;;;;;;4959181;28;20470;-61
2023/05/02 09:31:10;;;;;;;5.00;2.50;;;10.70;99.90;;;;;;4970243;28;20470;-60
2023/05/02 09:33:40;;;;;;;3.37;1.83;;;10.80;99.90;;;;;;4961348;28;21466;-60
2023/05/02 09:36:09;;;;;;;4.27;2.30;;;10.80;99.90;;;;;;4963422;28;21043;-60
2023/05/02 09:38:38;;;;;;;3.80;1.83;;;10.80;99.90;;;;;;4960432;28;20488;-61
2023/05/02 09:41:08;;;;;;;4.10;1.83;;;10.80;99.90;;;;;;4972375;28;20493;-60
2023/05/02 09:43:36;;;;;;;2.80;2.00;;;10.80;99.90;;;;;;4964076;28;21274;-60
2023/05/02 09:46:05;;;;;;;3.00;1.70;;;10.80;99.90;;;;;;4979349;28;21167;-60
2023/05/02 09:48:52;;;;;;;5.00;2.03;;;10.80;99.90;;;;;;4985570;28;20986;-60
2023/05/02 09:51:21;;;;;;;3.30;2.17;;;10.90;99.90;;;;;;4993075;28;21040;-59
2023/05/02 09:53:49;;;;;;;3.30;2.00;;;10.90;99.90;;;;;;4986378;28;21143;-59
2023/05/02 09:56:19;;;;;;;3.90;1.93;;;11.00;99.90;;;;;;4980864;28;20526;-60
2023/05/02 09:58:47;;;;;;;1.67;1.57;;;11.00;99.90;;;;;;4972778;28;20477;-60
2023/05/02 10:01:16;;;;;;;2.90;2.20;;;11.10;99.90;;;;;;4971251;28;21095;-61
2023/05/02 10:03:48;;;;;;;4.47;2.20;;;11.10;99.90;;;;;;4960651;28;20998;-61
2023/05/02 10:06:16;;;;;;;5.93;2.50;;;11.10;99.90;;;;;;4964350;28;20497;-60
2023/05/02 10:08:46;;;;;;;2.40;2.20;;;10.90;99.90;;;;;;4967854;28;20480;-60
2023/05/02 10:11:14;;;;;;;3.80;2.70;;;10.90;99.90;;;;;;4961916;28;20481;-61
2023/05/02 10:13:44;;;;;;;4.33;2.23;;;10.80;99.90;;;;;;4963863;28;20477;-60
2023/05/02 10:16:15;;;;;;;3.93;2.17;;;10.80;99.90;;;;;;4971526;28;20493;-60
2023/05/02 10:18:48;;;;;;;4.93;2.70;;;10.70;99.90;;;;;;4972959;28;20469;-60
2023/05/02 10:21:18;;;;;;;8.13;3.03;;;10.60;99.90;;;;;;4971348;28;20495;-60
2023/05/02 10:23:52;;;;;;;4.20;3.40;;;10.50;99.90;;;;;;4963768;28;20484;-60
2023/05/02 10:26:22;;;;;;;4.97;3.20;;;10.50;99.90;;;;;;4955584;28;20503;-60
2023/05/02 10:28:52;;;;;;;4.77;3.80;;;10.50;99.90;;;;;;4967673;28;20476;-60
2023/05/02 10:31:21;;;;;;;6.63;3.90;;;10.70;99.90;;;;;;4978954;28;20466;-60
2023/05/02 10:33:51;;;;;;;4.30;3.93;;;10.70;99.90;;;;;;4965490;28;20481;-64
2023/05/02 10:36:22;;;;;;;4.80;4.10;;;10.90;99.90;;;;;;4961980;28;20496;-60
2023/05/02 10:38:51;;;;;;;4.00;3.20;;;11.00;99.90;;;;;;4966162;28;20470;-60
2023/05/02 10:41:22;;;;;;;3.37;2.80;;;11.20;99.90;;;;;;4978790;28;20493;-62
2023/05/02 10:43:52;;;;;;;5.17;2.40;;;11.20;99.90;;;;;;4981762;28;20625;-61
2023/05/02 10:46:30;;;;;;;2.80;2.60;;;11.30;99.90;;;;;;4977567;28;20487;-60
2023/05/02 10:49:03;;;;;;;2.47;2.10;;;11.40;99.90;;;;;;4980407;28;20544;-61
2023/05/02 10:51:32;;;;;;;4.00;1.80;;;11.50;99.90;;;;;;4979360;28;20497;-61
2023/05/02 10:54:19;;;;;;;3.53;2.07;;;11.60;99.90;;;;;;4977127;28;20485;-62
2023/05/02 10:57:05;;;;;;;3.47;2.23;;;11.60;99.90;;;;;;4975529;28;20498;-61
2023/05/02 10:59:37;;;;;;;3.60;2.30;;;11.70;99.90;;;;;;4978081;28;20978;-61
2023/05/02 11:02:06;;;;;;;3.53;2.27;;;11.60;99.90;;;;;;4980207;28;20493;-62
2023/05/02 11:05:02;;;;;;;2.43;1.50;;;11.50;99.90;;;;;;4977256;28;20473;-61
2023/05/02 11:07:32;;;;;;;2.63;2.13;;;11.50;99.90;;;;;;4982448;28;21054;-61
2023/05/02 11:10:26;;;;;;;2.17;1.63;;;11.40;99.90;;;;;;4961864;28;20480;-61
2023/05/02 11:12:55;;;;;;;8.17;2.50;;;11.30;99.90;;;;;;4966919;28;20485;-61
2023/05/02 11:15:56;;;;;;;2.30;1.83;;;11.30;99.90;;;;;;4965714;28;20528;-61
2023/05/02 11:18:24;;;;;;;3.93;2.30;;;11.30;99.90;;;;;;4968539;28;21570;-61
2023/05/02 11:20:52;;;;;;;3.83;2.93;;;11.40;99.90;;;;;;4972105;28;20465;-61
2023/05/02 11:23:24;;;;;;;3.50;2.27;;;11.40;99.90;;;;;;4976365;28;20943;-61
2023/05/02 11:25:55;;;;;;;4.27;2.77;;;11.40;99.90;;;;;;4977232;28;21034;-61
2023/05/02 11:28:46;;;;;;;5.33;1.93;;;11.50;99.90;;;;;;4969592;28;20477;-62
2023/05/02 11:32:03;;;;;;;3.27;2.13;;;11.70;99.90;;;;;;4968540;28;20563;-61
2023/05/02 11:34:45;;;;;;;3.57;2.20;;;11.90;99.90;;;;;;4981962;28;20477;-61
2023/05/02 11:37:14;;;;;;;2.50;1.67;;;11.80;99.90;;;;;;4973751;28;20488;-60
2023/05/02 11:39:42;;;;;;;4.67;1.80;;;11.90;99.90;;;;;;4977978;28;20473;-61
2023/05/02 11:42:10;;;;;;;3.20;2.00;;;11.70;99.90;;;;;;4974403;28;20508;-61
2023/05/02 11:44:57;;;;;;;4.60;1.70;;;11.60;99.90;;;;;;4974781;28;21018;-61
2023/05/02 11:47:28;;;;;;;2.93;1.50;;;11.60;99.90;;;;;;4975710;28;20477;-61
2023/05/02 11:49:58;;;;;;;4.03;2.00;;;11.60;99.90;;;;;;4976066;28;20469;-61
2023/05/02 11:52:27;;;;;;;3.13;1.60;;;11.60;99.90;;;;;;4975529;28;20479;-60
2023/05/02 11:54:55;;;;;;;4.77;1.60;;;11.70;99.90;;;;;;4971838;28;21067;-61
2023/05/02 11:57:24;;;;;;;3.77;2.00;;;11.80;99.90;;;;;;4987032;28;20474;-61
2023/05/02 11:59:52;;;;;;;4.50;2.10;;;11.90;99.90;;;;;;4983099;28;20474;-61
2023/05/02 12:02:34;;;;;;;4.10;1.60;;;12.00;99.90;;;;;;4973015;28;20501;-61
2023/05/02 12:05:05;;;;;;;2.60;2.00;;;12.10;99.90;;;;;;4979174;28;21080;-61
2023/05/02 12:07:37;;;;;;;1.60;1.50;;;12.20;99.90;;;;;;4976787;28;20477;-61
2023/05/02 12:10:07;;;;;;;2.00;1.80;;;12.30;99.90;;;;;;4979782;28;20473;-60
2023/05/02 12:12:35;;;;;;;3.60;2.10;;;12.10;99.90;;;;;;4964093;28;20478;-61
2023/05/02 12:15:05;;;;;;;3.93;1.80;;;12.00;99.90;;;;;;4976498;28;20497;-61
2023/05/02 12:17:33;;;;;;;2.23;1.60;;;11.80;99.90;;;;;;4981247;28;20998;-61
2023/05/02 12:20:06;;;;;;;4.00;2.23;;;11.80;99.90;;;;;;4979073;28;20478;-61
2023/05/02 12:22:34;;;;;;;2.33;1.93;;;11.90;99.90;;;;;;4980084;28;20504;-61
2023/05/02 12:25:04;;;;;;;2.93;2.13;;;11.80;99.90;;;;;;4978166;28;20564;-61
2023/05/02 12:27:34;;;;;;;4.13;2.10;;;11.80;99.90;;;;;;4979467;28;20487;-61
2023/05/02 12:30:02;;;;;;;9.80;2.60;;;11.80;99.90;;;;;;4978364;28;20518;-60
2023/05/02 12:32:32;;;;;;;2.83;2.10;;;11.90;99.90;;;;;;4975752;28;20914;-60
2023/05/02 12:35:01;;;;;;;3.17;1.87;;;11.90;99.90;;;;;;4970054;28;20519;-61
2023/05/02 12:37:31;;;;;;;2.97;1.80;;;11.80;99.90;;;;;;4976689;28;20466;-61
2023/05/02 12:39:59;;;;;;;5.10;2.03;;;11.70;99.90;;;;;;4979290;28;21007;-61
2023/05/02 12:42:27;;;;;;;2.03;1.73;;;11.60;99.90;;;;;;4980606;28;20588;-60
2023/05/02 12:44:55;;;;;;;3.13;1.90;;;11.60;99.90;;;;;;4968363;28;20476;-60
2023/05/02 12:47:25;;;;;;;7.93;1.90;;;11.60;99.90;;;;;;4968976;28;20478;-61
2023/05/02 12:49:55;;;;;;;2.27;1.60;;;11.60;99.90;;;;;;4974091;28;20880;-61
2023/05/02 12:52:48;;;;;;;2.17;1.67;;;11.60;99.90;;;;;;4970525;28;21096;-60
2023/05/02 12:55:17;;;;;;;3.90;2.03;;;11.80;99.90;;;;;;4972838;28;20856;-61
2023/05/02 12:57:45;;;;;;;3.80;1.90;;;11.80;99.90;;;;;;4970129;28;20491;-61
2023/05/02 13:00:16;;;;;;;3.10;1.97;;;11.70;99.90;;;;;;4979213;28;20556;-61
2023/05/02 13:02:44;;;;;;;5.53;2.17;;;11.50;99.90;;;;;;4967381;28;20515;-61
2023/05/02 13:05:16;;;;;;;4.20;2.30;;;11.50;99.90;;;;;;4964600;28;20938;-60